createdAt,value
2022-08-08T00:03:20.453Z,65.7
2022-08-08T00:06:06.743Z,67.4
2022-08-08T00:09:02.928Z,67.4
2022-08-08T00:12:12.517Z,67.4
2022-08-08T00:15:07.207Z,67.1
2022-08-08T00:18:06.945Z,67.1
2022-08-08T00:21:07.819Z,67.1
2022-08-08T00:24:05.195Z,67.1
2022-08-08T00:27:02.715Z,67.1
2022-08-08T00:30:02.786Z,67.1
2022-08-08T00:33:02.726Z,67.1
2022-08-08T00:36:02.871Z,67.1
2022-08-08T00:39:02.848Z,67.1
2022-08-08T00:42:36.878Z,67.5
2022-08-08T00:45:05.334Z,67.5
2022-08-08T00:48:33.602Z,67.5
2022-08-08T00:51:02.789Z,67.5
2022-08-08T00:54:18.233Z,67.5
2022-08-08T00:57:02.758Z,67.5
2022-08-08T01:00:07.200Z,67.5
2022-08-08T01:06:04.649Z,67.5
2022-08-08T01:09:41.105Z,68.7
2022-08-08T01:12:05.151Z,68.7
2022-08-08T01:15:02.976Z,69.2
2022-08-08T01:18:04.799Z,69.2
2022-08-08T01:21:03.417Z,69.2
2022-08-08T01:24:18.599Z,69.2
2022-08-08T01:27:02.760Z,69.2
2022-08-08T01:30:05.814Z,69.2
2022-08-08T01:33:02.797Z,69.2
2022-08-08T01:36:03.574Z,69.2
2022-08-08T01:39:02.991Z,69.2
2022-08-08T01:42:02.823Z,69.2
2022-08-08T01:45:02.795Z,69.2
2022-08-08T01:48:32.835Z,69.2
2022-08-08T01:51:03.143Z,69.9
2022-08-08T01:57:03.412Z,69.9
2022-08-08T02:00:05.809Z,69.9
2022-08-08T02:03:02.773Z,69.9
2022-08-08T02:06:04.258Z,70.6
2022-08-08T02:09:02.753Z,70.6
2022-08-08T02:12:06.056Z,70.6
2022-08-08T02:15:05.206Z,70.6
2022-08-08T02:18:05.422Z,70.6
2022-08-08T02:21:17.969Z,70.6
2022-08-08T02:24:02.755Z,70.6
2022-08-08T02:27:03.454Z,70.6
2022-08-08T02:30:03.882Z,70.6
2022-08-08T02:33:02.785Z,70.6
2022-08-08T02:36:07.776Z,71.7
2022-08-08T02:39:58.621Z,71.7
2022-08-08T02:42:12.981Z,71.7
2022-08-08T02:45:03.640Z,71.7
2022-08-08T02:48:03.307Z,71.7
2022-08-08T02:51:02.747Z,71.7
2022-08-08T02:54:02.795Z,71.7
2022-08-08T02:57:02.748Z,71.7
2022-08-08T03:00:33.910Z,71.7
2022-08-08T03:03:02.750Z,71.7
2022-08-08T03:06:03.878Z,72.8
2022-08-08T03:09:03.897Z,72.8
2022-08-08T03:12:08.254Z,72.8
2022-08-08T03:18:09.359Z,72.8
2022-08-08T03:21:09.842Z,72.8
2022-08-08T03:24:04.448Z,72.8
2022-08-08T03:27:03.906Z,72.8
2022-08-08T03:30:03.413Z,72.8
2022-08-08T03:36:03.460Z,72.8
2022-08-08T03:39:18.305Z,72.8
2022-08-08T03:42:41.221Z,72.8
2022-08-08T03:46:03.903Z,72.8
2022-08-08T03:48:03.013Z,72.8
2022-08-08T03:51:03.433Z,72.8
2022-08-08T03:54:05.131Z,72.8
2022-08-08T04:00:17.432Z,73.1
2022-08-08T04:03:06.426Z,73.1
2022-08-08T04:06:05.129Z,73.1
2022-08-08T04:09:13.991Z,73.7
2022-08-08T04:12:03.301Z,73.7
2022-08-08T04:15:05.308Z,73.7
2022-08-08T04:18:05.313Z,73.7
2022-08-08T04:21:07.214Z,73.7
2022-08-08T04:24:19.369Z,73.7
2022-08-08T04:27:03.116Z,73.7
2022-08-08T04:30:20.930Z,73.7
2022-08-08T04:33:02.851Z,73.7
2022-08-08T04:36:02.830Z,73.7
2022-08-08T04:42:03.116Z,73.7
2022-08-08T04:45:02.941Z,73.7
2022-08-08T04:48:03.588Z,73.7
2022-08-08T04:51:02.987Z,73.7
2022-08-08T04:54:44.525Z,74.3
2022-08-08T04:57:02.775Z,74.3
2022-08-08T05:00:04.464Z,74.3
2022-08-08T05:03:07.692Z,74.3
2022-08-08T05:06:18.517Z,74.3
2022-08-08T05:09:08.151Z,74.3
2022-08-08T05:12:05.434Z,74.3
2022-08-08T05:15:06.530Z,74.3
2022-08-08T05:18:03.529Z,74.3
2022-08-08T05:21:07.829Z,74.3
2022-08-08T05:24:10.755Z,74.3
2022-08-08T05:27:02.778Z,74.8
2022-08-08T05:30:03.336Z,74.8
2022-08-08T05:33:05.746Z,74.8
2022-08-08T05:36:03.183Z,74.8
2022-08-08T05:39:02.936Z,74.8
2022-08-08T05:42:02.843Z,74.8
2022-08-08T05:45:41.891Z,74.8
2022-08-08T05:48:12.027Z,74.8
2022-08-08T05:51:17.972Z,74.8
2022-08-08T05:54:55.815Z,74.8
2022-08-08T05:57:06.819Z,75.6
2022-08-08T06:00:27.251Z,75.6
2022-08-08T06:03:04.254Z,75.6
2022-08-08T06:06:08.187Z,75.6
2022-08-08T06:12:02.814Z,75.6
2022-08-08T06:15:03.635Z,77.5
2022-08-08T06:18:25.034Z,77.5
2022-08-08T06:21:32.950Z,77.5
2022-08-08T06:24:13.627Z,77.5
2022-08-08T06:27:04.727Z,76.3
2022-08-08T06:30:04.639Z,76.3
2022-08-08T06:33:04.434Z,76.3
2022-08-08T06:36:12.262Z,76.8
2022-08-08T06:39:08.969Z,76.9
2022-08-08T06:42:05.270Z,76.9
2022-08-08T06:45:07.828Z,75.6
2022-08-08T06:48:06.624Z,75.6
2022-08-08T06:51:10.639Z,75.6
2022-08-08T06:54:03.129Z,73.2
2022-08-08T06:57:02.940Z,73.2
2022-08-08T07:00:15.175Z,73.2
2022-08-08T07:03:07.048Z,72.9
2022-08-08T07:06:04.979Z,72.9
2022-08-08T07:09:03.437Z,71
2022-08-08T07:12:04.530Z,71
2022-08-08T07:15:06.495Z,71
2022-08-08T07:18:40.648Z,71
2022-08-08T07:21:18.429Z,69.2
2022-08-08T07:24:06.719Z,69.2
2022-08-08T07:27:09.230Z,69.2
2022-08-08T07:30:18.223Z,66.5
2022-08-08T07:33:03.570Z,66.5
2022-08-08T07:36:03.162Z,66.5
2022-08-08T07:39:03.939Z,66.5
2022-08-08T07:42:07.615Z,64.5
2022-08-08T07:45:04.100Z,64.5
2022-08-08T07:48:05.184Z,64.5
2022-08-08T07:51:04.215Z,64.5
2022-08-08T07:54:05.870Z,63.6
2022-08-08T07:57:04.160Z,63.6
2022-08-08T08:00:02.976Z,63.6
2022-08-08T08:03:03.736Z,63.6
2022-08-08T08:06:02.994Z,61.2
2022-08-08T08:09:03.345Z,61.2
2022-08-08T08:12:02.865Z,61.2
2022-08-08T08:15:07.093Z,61.2
2022-08-08T08:18:04.220Z,61.2
2022-08-08T08:21:02.796Z,61.2
2022-08-08T08:24:05.309Z,61.2
2022-08-08T08:27:08.331Z,61.2
2022-08-08T08:30:03.353Z,61.2
2022-08-08T08:33:02.984Z,61.2
2022-08-08T08:36:28.543Z,61.2
2022-08-08T08:39:03.190Z,61.2
2022-08-08T08:42:04.338Z,54.6
2022-08-08T08:45:10.593Z,54.6
2022-08-08T08:48:03.552Z,54.6
2022-08-08T08:51:05.306Z,54.6
2022-08-08T08:54:03.523Z,53.9
2022-08-08T08:57:03.859Z,53.9
2022-08-08T09:00:17.240Z,53.9
2022-08-08T09:03:02.885Z,53.9
2022-08-08T09:06:02.884Z,52.2
2022-08-08T09:09:02.886Z,52.2
2022-08-08T09:12:25.112Z,52.2
2022-08-08T09:15:03.286Z,52.2
2022-08-08T09:18:06.024Z,52.2
2022-08-08T09:24:06.181Z,52
2022-08-08T09:27:03.642Z,52
2022-08-08T09:30:03.829Z,48.9
2022-08-08T09:36:03.436Z,47.5
2022-08-08T09:39:03.123Z,47.5
2022-08-08T09:42:25.940Z,47.5
2022-08-08T09:45:20.441Z,47.5
2022-08-08T09:48:23.584Z,47.5
2022-08-08T09:51:07.203Z,47.5
2022-08-08T09:54:36.743Z,44.7
2022-08-08T09:57:02.892Z,44.7
2022-08-08T10:00:58.945Z,44.7
2022-08-08T10:03:02.871Z,44.7
2022-08-08T10:06:03.083Z,44.7
2022-08-08T10:09:02.948Z,44.7
2022-08-08T10:12:53.536Z,44.7
2022-08-08T10:15:03.371Z,44.7
2022-08-08T10:18:22.372Z,44.7
2022-08-08T10:21:28.573Z,43
2022-08-08T10:24:02.848Z,42.9
2022-08-08T10:27:02.807Z,42.9
2022-08-08T10:30:05.978Z,42.9
2022-08-08T10:33:03.340Z,42.9
2022-08-08T10:36:25.030Z,42.9
2022-08-08T10:39:03.483Z,42.9
2022-08-08T10:42:18.855Z,42.9
2022-08-08T10:45:03.038Z,42.9
2022-08-08T10:48:02.853Z,42.9
2022-08-08T10:51:02.830Z,42.3
2022-08-08T10:54:04.742Z,42.3
2022-08-08T10:57:05.950Z,42.3
2022-08-08T11:00:02.840Z,42.3
2022-08-08T11:03:05.177Z,42.3
2022-08-08T11:06:03.470Z,42.3
2022-08-08T11:09:02.781Z,42.3
2022-08-08T11:12:16.228Z,42.3
2022-08-08T11:15:02.851Z,42.3
2022-08-08T11:18:04.688Z,42.3
2022-08-08T11:21:19.464Z,43.8
2022-08-08T11:24:05.406Z,43.8
2022-08-08T11:27:19.126Z,43.8
2022-08-08T11:30:27.564Z,43.8
2022-08-08T11:33:14.509Z,43.8
2022-08-08T11:36:02.837Z,43.8
2022-08-08T11:39:05.005Z,43.8
2022-08-08T11:42:02.813Z,43.6
2022-08-08T11:45:02.798Z,43.6
2022-08-08T11:48:11.793Z,43.6
2022-08-08T11:51:39.509Z,43.6
2022-08-08T11:54:09.861Z,43.6
2022-08-08T11:57:06.819Z,43.6
2022-08-08T12:00:09.753Z,43.6
2022-08-08T12:03:02.942Z,43.6
2022-08-08T12:06:02.916Z,43.6
2022-08-08T12:09:02.858Z,43.6
2022-08-08T12:12:02.871Z,43.6
2022-08-08T12:15:02.815Z,41.4
2022-08-08T12:18:04.534Z,41.4
2022-08-08T12:21:02.800Z,41.4
2022-08-08T12:24:02.900Z,41.4
2022-08-08T12:27:07.027Z,41.4
2022-08-08T12:30:06.606Z,41.4
2022-08-08T12:33:09.841Z,41.4
2022-08-08T12:36:02.812Z,41.4
2022-08-08T12:39:09.028Z,41.4
2022-08-08T12:42:07.065Z,41.4
2022-08-08T12:45:02.791Z,41.4
2022-08-08T12:48:39.109Z,41.4
2022-08-08T12:51:05.016Z,39.2
2022-08-08T12:54:19.522Z,39.2
2022-08-08T12:57:02.846Z,39.2
2022-08-08T13:00:18.343Z,39.2
2022-08-08T13:03:03.969Z,39.2
2022-08-08T13:06:15.316Z,39.2
2022-08-08T13:09:04.992Z,39.2
2022-08-08T13:12:31.791Z,39.5
2022-08-08T13:15:03.062Z,39.5
2022-08-08T13:18:22.028Z,39.5
2022-08-08T13:21:04.065Z,39.5
2022-08-08T13:24:03.037Z,39.5
2022-08-08T13:27:02.822Z,39.5
2022-08-08T13:30:02.947Z,39.5
2022-08-08T13:33:02.813Z,39.5
2022-08-08T13:36:03.235Z,39.5
2022-08-08T13:39:03.057Z,39.5
2022-08-08T13:42:03.797Z,39.5
2022-08-08T13:45:04.444Z,39.5
2022-08-08T13:48:03.857Z,39.5
2022-08-08T13:51:48.605Z,39.5
2022-08-08T13:54:03.470Z,39.5
2022-08-08T13:57:03.283Z,39.5
2022-08-08T14:00:02.843Z,39.5
2022-08-08T14:03:15.060Z,39.5
2022-08-08T14:06:03.972Z,38.7
2022-08-08T14:09:29.926Z,38.7
2022-08-08T14:12:02.781Z,38.7
2022-08-08T14:15:05.253Z,38.7
2022-08-08T14:18:55.406Z,38.7
2022-08-08T14:21:08.032Z,38.7
2022-08-08T14:24:10.830Z,38.7
2022-08-08T14:27:10.077Z,38.7
2022-08-08T14:30:03.417Z,38.7
2022-08-08T14:33:03.561Z,38.7
2022-08-08T14:36:02.798Z,38.7
2022-08-08T14:39:13.711Z,38.7
2022-08-08T14:42:02.784Z,38.7
2022-08-08T14:45:03.761Z,38.7
2022-08-08T14:48:02.839Z,38.4
2022-08-08T14:51:04.321Z,38.4
2022-08-08T14:54:03.726Z,38.4
2022-08-08T14:57:07.063Z,38.4
2022-08-08T15:00:02.937Z,38.5
2022-08-08T15:03:19.205Z,38.5
2022-08-08T15:06:02.806Z,38.5
2022-08-08T15:09:03.421Z,38.5
2022-08-08T15:12:02.873Z,38.5
2022-08-08T15:15:09.035Z,38.5
2022-08-08T15:18:03.847Z,38.5
2022-08-08T15:21:02.855Z,38.5
2022-08-08T15:24:03.318Z,38.5
2022-08-08T15:30:02.872Z,38.5
2022-08-08T15:33:02.823Z,38.5
2022-08-08T15:36:02.877Z,38.5
2022-08-08T15:39:03.083Z,38.5
2022-08-08T15:42:03.483Z,38.5
2022-08-08T15:45:03.494Z,38.5
2022-08-08T15:48:18.156Z,38.5
2022-08-08T15:51:02.902Z,38.5
2022-08-08T15:54:02.788Z,38.5
2022-08-08T15:57:02.798Z,38.5
2022-08-08T16:00:28.989Z,37.1
2022-08-08T16:03:05.528Z,37.1
2022-08-08T16:06:05.445Z,37.1
2022-08-08T16:15:02.801Z,37.1
2022-08-08T16:18:14.657Z,37.1
2022-08-08T16:21:06.053Z,37.1
2022-08-08T16:24:02.832Z,37.1
2022-08-08T16:27:04.091Z,37.1
2022-08-08T16:30:25.152Z,37.1
2022-08-08T16:33:05.683Z,37.1
2022-08-08T16:36:02.868Z,37.1
2022-08-08T16:39:09.511Z,37.1
2022-08-08T16:42:03.982Z,37.1
2022-08-08T16:45:11.254Z,37.1
2022-08-08T16:48:02.802Z,37.1
2022-08-08T16:51:02.814Z,37.1
2022-08-08T17:00:04.391Z,37.1
2022-08-08T17:03:02.776Z,37.1
2022-08-08T17:06:02.821Z,37.1
2022-08-08T17:09:04.714Z,37.1
2022-08-08T17:12:04.910Z,37.1
2022-08-08T17:15:21.003Z,37.1
2022-08-08T17:18:10.699Z,37.1
2022-08-08T17:21:03.504Z,37.1
2022-08-08T17:24:27.599Z,37.1
2022-08-08T17:27:02.780Z,37.1
2022-08-08T17:30:02.880Z,37.1
2022-08-08T17:36:31.594Z,37.1
2022-08-08T17:42:05.052Z,37.1
2022-08-08T17:45:02.852Z,37.1
2022-08-08T17:48:03.898Z,40.7
2022-08-08T17:51:02.821Z,40.7
2022-08-08T17:54:10.300Z,40.7
2022-08-08T17:57:02.799Z,41.6
2022-08-08T18:00:04.486Z,41.9
2022-08-08T18:03:15.469Z,41.9
2022-08-08T18:06:06.635Z,41.9
2022-08-08T18:09:05.440Z,41.9
2022-08-08T18:12:03.837Z,41.9
2022-08-08T18:15:02.773Z,41.9
2022-08-08T18:18:31.733Z,41.9
2022-08-08T18:21:15.701Z,41.9
2022-08-08T18:24:04.090Z,41.9
2022-08-08T18:27:17.700Z,43.8
2022-08-08T18:30:03.899Z,43.8
2022-08-08T18:33:06.063Z,43.8
2022-08-08T18:36:08.117Z,43.8
2022-08-08T18:39:04.615Z,43.8
2022-08-08T18:42:09.205Z,43.8
2022-08-08T18:45:45.385Z,43.8
2022-08-08T18:48:11.035Z,44.9
2022-08-08T18:51:02.786Z,44.9
2022-08-08T18:54:29.822Z,44.9
2022-08-08T18:57:03.194Z,45.3
2022-08-08T19:00:03.459Z,45.3
2022-08-08T19:03:09.083Z,45.3
2022-08-08T19:06:03.718Z,45.8
2022-08-08T19:09:02.790Z,45.8
2022-08-08T19:12:02.759Z,45.8
2022-08-08T19:15:02.725Z,45.8
2022-08-08T19:19:00.161Z,45.8
2022-08-08T19:21:02.822Z,45.8
2022-08-08T19:24:05.337Z,47.2
2022-08-08T19:27:02.800Z,47.2
2022-08-08T19:30:02.798Z,47.2
2022-08-08T19:33:03.227Z,47.2
2022-08-08T19:36:16.442Z,47.2
2022-08-08T19:39:02.835Z,47.2
2022-08-08T19:42:02.980Z,47.2
2022-08-08T19:45:10.238Z,48.6
2022-08-08T19:48:03.371Z,48.7
2022-08-08T19:51:03.757Z,48.7
2022-08-08T19:54:02.774Z,48.7
2022-08-08T19:57:09.970Z,48.7
2022-08-08T20:00:02.927Z,48.7
2022-08-08T20:03:14.342Z,48.7
2022-08-08T20:06:18.933Z,48.7
2022-08-08T20:09:11.018Z,50.6
2022-08-08T20:12:03.876Z,50.6
2022-08-08T20:15:14.239Z,50.6
2022-08-08T20:18:05.994Z,50.6
2022-08-08T20:21:02.788Z,50.6
2022-08-08T20:24:05.276Z,50.6
2022-08-08T20:27:02.748Z,50.6
2022-08-08T20:30:03.837Z,52.2
2022-08-08T20:33:03.034Z,52.2
2022-08-08T20:36:13.923Z,52.2
2022-08-08T20:39:03.024Z,52.2
2022-08-08T20:42:02.784Z,53.2
2022-08-08T20:45:03.637Z,53.2
2022-08-08T20:48:03.787Z,53.6
2022-08-08T20:51:03.067Z,53.6
2022-08-08T20:54:25.933Z,53.6
2022-08-08T20:57:21.217Z,53.6
2022-08-08T21:00:02.803Z,53.6
2022-08-08T21:03:03.752Z,53.6
2022-08-08T21:06:02.758Z,53.6
2022-08-08T21:09:03.188Z,55.8
2022-08-08T21:12:07.335Z,55.8
2022-08-08T21:15:09.781Z,55.8
2022-08-08T21:18:03.087Z,55.8
2022-08-08T21:21:05.063Z,55.8
2022-08-08T21:24:23.550Z,55.8
2022-08-08T21:27:02.728Z,55.8
2022-08-08T21:30:18.020Z,55.8
2022-08-08T21:33:10.996Z,56.3
2022-08-08T21:36:28.217Z,56.3
2022-08-08T21:39:10.441Z,56.3
2022-08-08T21:42:02.765Z,56.3
2022-08-08T21:48:35.583Z,56.3
2022-08-08T21:51:03.722Z,56.3
2022-08-08T21:55:02.719Z,56.3
2022-08-08T21:57:03.242Z,56.3
2022-08-08T22:00:07.185Z,56.3
2022-08-08T22:03:03.874Z,56.3
2022-08-08T22:06:03.986Z,56.3
2022-08-08T22:09:10.264Z,56.3
2022-08-08T22:12:15.189Z,56.3
2022-08-08T22:15:06.291Z,56.3
2022-08-08T22:18:03.156Z,56.3
2022-08-08T22:21:17.853Z,56.3
2022-08-08T22:24:02.770Z,56.3
2022-08-08T22:27:05.528Z,56.3
2022-08-08T22:30:06.247Z,56.3
2022-08-08T22:33:02.727Z,59.6
2022-08-08T22:36:14.947Z,59.6
2022-08-08T22:39:08.742Z,59.6
2022-08-08T22:42:05.127Z,59.6
2022-08-08T22:45:03.867Z,59.6
2022-08-08T22:48:03.205Z,59.6
2022-08-08T22:51:09.053Z,61.4
2022-08-08T22:57:08.765Z,61.4
2022-08-08T23:00:02.787Z,61.4
2022-08-08T23:03:03.416Z,61.4
2022-08-08T23:06:03.070Z,61.4
2022-08-08T23:09:02.992Z,61.4
2022-08-08T23:12:43.156Z,61.4
2022-08-08T23:18:02.739Z,61.4
2022-08-08T23:21:03.106Z,61.4
2022-08-08T23:24:02.717Z,61.4
2022-08-08T23:27:02.718Z,63.5
2022-08-08T23:30:02.790Z,63.5
2022-08-08T23:33:02.771Z,63.5
2022-08-08T23:36:11.226Z,63.5
2022-08-08T23:39:03.956Z,63.5
2022-08-08T23:42:03.816Z,63.5
2022-08-08T23:45:02.735Z,63.5
2022-08-08T23:51:02.950Z,63.5
2022-08-08T23:57:03.024Z,63.5
